createdAt,value
2023-02-14T00:00:56.770Z,99.50
2023-02-14T00:03:26.572Z,99.40
2023-02-14T00:05:53.227Z,99.30
2023-02-14T00:08:19.962Z,99.20
2023-02-14T00:10:46.759Z,99.20
2023-02-14T00:13:13.504Z,99.60
2023-02-14T00:15:40.299Z,99.50
2023-02-14T00:18:07.055Z,99.50
2023-02-14T00:20:33.842Z,99.90
2023-02-14T00:23:01.029Z,99.90
2023-02-14T00:25:28.070Z,99.90
2023-02-14T00:27:55.713Z,99.90
2023-02-14T00:30:22.618Z,99.90
2023-02-14T00:32:49.610Z,99.90
2023-02-14T00:35:16.470Z,99.90
2023-02-14T00:37:43.205Z,99.90
2023-02-14T00:40:10.286Z,99.90
2023-02-14T00:42:37.037Z,99.90
2023-02-14T00:45:03.942Z,99.90
2023-02-14T00:47:30.666Z,99.90
2023-02-14T00:50:02.672Z,99.90
2023-02-14T00:52:30.641Z,99.90
2023-02-14T00:54:57.320Z,99.90
2023-02-14T00:57:23.978Z,99.90
2023-02-14T00:59:50.645Z,99.90
2023-02-14T01:02:17.403Z,99.90
2023-02-14T01:04:44.249Z,99.90
2023-02-14T01:07:10.988Z,99.90
2023-02-14T01:09:37.807Z,99.90
2023-02-14T01:12:04.855Z,99.90
2023-02-14T01:14:31.566Z,99.90
2023-02-14T01:16:58.285Z,99.90
2023-02-14T01:19:25.106Z,99.90
2023-02-14T01:21:51.805Z,99.90
2023-02-14T01:24:18.494Z,99.90
2023-02-14T01:26:45.249Z,99.90
2023-02-14T01:29:11.957Z,99.90
2023-02-14T01:31:38.865Z,99.90
2023-02-14T01:34:05.759Z,99.90
2023-02-14T01:36:38.938Z,99.90
2023-02-14T01:39:08.936Z,99.90
2023-02-14T01:41:37.950Z,99.90
2023-02-14T01:44:06.804Z,99.90
2023-02-14T01:46:36.048Z,99.90
2023-02-14T01:49:13.541Z,99.90
2023-02-14T01:52:04.297Z,99.90
2023-02-14T01:54:33.462Z,99.90
2023-02-14T01:57:05.314Z,99.90
2023-02-14T01:59:37.611Z,99.90
2023-02-14T02:02:05.298Z,99.90
2023-02-14T02:04:39.808Z,99.90
2023-02-14T02:07:11.740Z,99.90
2023-02-14T02:10:01.116Z,99.90
2023-02-14T02:12:30.721Z,99.90
2023-02-14T02:14:59.780Z,99.90
2023-02-14T02:17:32.413Z,99.90
2023-02-14T02:20:11.393Z,99.90
2023-02-14T02:23:16.309Z,99.90
2023-02-14T02:26:28.471Z,99.90
2023-02-14T02:29:23.001Z,99.90
2023-02-14T02:32:22.510Z,99.90
2023-02-14T02:35:19.712Z,99.90
2023-02-14T02:38:23.628Z,99.90
2023-02-14T02:41:08.996Z,99.90
2023-02-14T02:44:04.792Z,99.90
2023-02-14T02:46:49.706Z,99.90
2023-02-14T02:49:44.507Z,99.90
2023-02-14T02:52:46.767Z,99.90
2023-02-14T02:55:22.936Z,99.90
2023-02-14T02:57:53.024Z,99.90
2023-02-14T03:00:22.460Z,99.90
2023-02-14T03:03:10.931Z,99.90
2023-02-14T03:05:38.350Z,99.90
2023-02-14T03:08:05.815Z,99.90
2023-02-14T03:10:37.959Z,99.90
2023-02-14T03:13:32.183Z,99.90
2023-02-14T03:16:04.846Z,99.90
2023-02-14T03:18:59.434Z,99.90
2023-02-14T03:21:52.269Z,99.90
2023-02-14T03:24:19.007Z,99.90
2023-02-14T03:26:48.674Z,99.90
2023-02-14T03:29:52.713Z,99.90
2023-02-14T03:32:33.767Z,99.90
2023-02-14T03:35:05.701Z,99.90
2023-02-14T03:37:48.898Z,99.90
2023-02-14T03:40:54.606Z,99.90
2023-02-14T03:43:33.109Z,99.90
2023-02-14T03:46:05.706Z,99.90
2023-02-14T03:48:34.475Z,99.90
2023-02-14T03:51:02.891Z,99.90
2023-02-14T03:53:33.212Z,99.90
2023-02-14T03:56:59.010Z,99.90
2023-02-14T03:59:27.461Z,99.90
2023-02-14T04:02:01.452Z,99.90
2023-02-14T04:04:33.137Z,99.90
2023-02-14T04:07:00.103Z,99.90
2023-02-14T04:09:26.904Z,99.90
2023-02-14T04:11:53.748Z,99.90
2023-02-14T04:14:20.486Z,99.90
2023-02-14T04:17:05.763Z,99.90
2023-02-14T04:19:32.456Z,99.90
2023-02-14T04:21:59.183Z,99.90
2023-02-14T04:24:27.265Z,99.90
2023-02-14T04:27:09.837Z,99.90
2023-02-14T04:29:40.470Z,99.90
2023-02-14T04:32:09.815Z,99.90
2023-02-14T04:34:36.898Z,99.90
2023-02-14T04:37:04.922Z,99.90
2023-02-14T04:39:31.703Z,99.90
2023-02-14T04:41:58.540Z,99.90
2023-02-14T04:44:25.997Z,99.90
2023-02-14T04:46:53.028Z,99.90
2023-02-14T04:49:19.921Z,99.90
2023-02-14T04:51:46.733Z,99.90
2023-02-14T04:54:13.429Z,99.90
2023-02-14T04:56:40.235Z,99.90
2023-02-14T04:59:07.158Z,99.90
2023-02-14T05:01:33.982Z,99.90
2023-02-14T05:04:00.672Z,99.90
2023-02-14T05:06:28.933Z,99.90
2023-02-14T05:08:56.795Z,99.90
2023-02-14T05:11:23.701Z,99.90
2023-02-14T05:13:50.712Z,99.90
2023-02-14T05:16:17.638Z,99.90
2023-02-14T05:18:44.545Z,99.90
2023-02-14T05:21:11.782Z,99.90
2023-02-14T05:23:38.613Z,99.90
2023-02-14T05:26:05.575Z,99.90
2023-02-14T05:28:32.545Z,99.90
2023-02-14T05:30:59.653Z,99.90
2023-02-14T05:33:27.018Z,99.90
2023-02-14T05:35:53.797Z,99.90
2023-02-14T05:38:20.501Z,99.90
2023-02-14T05:40:47.350Z,99.90
2023-02-14T05:43:14.104Z,99.90
2023-02-14T05:45:40.798Z,99.90
2023-02-14T05:48:07.647Z,99.90
2023-02-14T05:50:34.350Z,99.90
2023-02-14T05:53:01.214Z,99.90
2023-02-14T05:55:28.228Z,99.90
2023-02-14T05:57:55.040Z,99.90
2023-02-14T06:00:22.804Z,99.90
2023-02-14T06:02:49.449Z,99.90
2023-02-14T06:05:18.196Z,99.90
2023-02-14T06:07:50.425Z,99.90
2023-02-14T06:10:22.520Z,99.90
2023-02-14T06:12:51.291Z,99.90
2023-02-14T06:15:18.429Z,99.90
2023-02-14T06:17:45.293Z,99.90
2023-02-14T06:20:12.348Z,99.90
2023-02-14T06:22:39.336Z,99.90
2023-02-14T06:25:06.654Z,99.90
2023-02-14T06:27:33.622Z,99.90
2023-02-14T06:30:00.459Z,99.90
2023-02-14T06:32:27.308Z,99.90
2023-02-14T06:34:54.089Z,99.90
2023-02-14T06:37:20.829Z,99.90
2023-02-14T06:39:47.561Z,99.90
2023-02-14T06:42:14.587Z,99.90
2023-02-14T06:44:41.457Z,99.90
2023-02-14T06:47:08.534Z,99.90
2023-02-14T06:49:35.227Z,99.90
2023-02-14T06:52:02.343Z,99.90
2023-02-14T06:54:29.090Z,99.90
2023-02-14T06:56:55.764Z,99.90
2023-02-14T06:59:22.817Z,99.90
2023-02-14T07:01:49.775Z,99.90
2023-02-14T07:04:17.769Z,99.90
2023-02-14T07:06:46.215Z,99.90
2023-02-14T07:09:16.904Z,99.90
2023-02-14T07:11:47.389Z,99.90
2023-02-14T07:14:14.574Z,99.90
2023-02-14T07:16:41.287Z,99.90
2023-02-14T07:19:08.107Z,99.90
2023-02-14T07:21:34.898Z,99.90
2023-02-14T07:24:01.619Z,99.90
2023-02-14T07:26:28.476Z,99.90
2023-02-14T07:28:55.198Z,99.90
2023-02-14T07:31:23.459Z,99.90
2023-02-14T07:33:53.440Z,99.90
2023-02-14T07:36:20.249Z,99.90
2023-02-14T07:38:46.999Z,99.90
2023-02-14T07:41:13.753Z,99.90
2023-02-14T07:43:40.529Z,99.90
2023-02-14T07:46:07.436Z,99.90
2023-02-14T07:48:34.778Z,99.90
2023-02-14T07:51:02.700Z,99.90
2023-02-14T07:53:29.777Z,99.90
2023-02-14T07:55:56.791Z,99.90
2023-02-14T07:58:23.548Z,99.90
2023-02-14T08:00:51.220Z,99.90
2023-02-14T08:03:18.371Z,99.90
2023-02-14T08:05:45.341Z,99.90
2023-02-14T08:08:12.157Z,99.90
2023-02-14T08:10:38.857Z,99.90
2023-02-14T08:13:05.647Z,99.90
2023-02-14T08:15:52.987Z,99.90
2023-02-14T08:18:22.964Z,99.90
2023-02-14T08:20:50.007Z,99.90
2023-02-14T08:23:18.291Z,99.90
2023-02-14T08:25:45.457Z,99.90
2023-02-14T08:28:13.826Z,99.90
2023-02-14T08:30:41.749Z,99.90
2023-02-14T08:33:08.501Z,99.90
2023-02-14T08:35:36.148Z,99.90
2023-02-14T08:38:03.052Z,99.90
2023-02-14T08:40:29.935Z,99.90
2023-02-14T08:42:56.677Z,99.90
2023-02-14T08:45:23.704Z,99.90
2023-02-14T08:47:50.811Z,99.90
2023-02-14T08:50:18.304Z,99.90
2023-02-14T08:52:45.468Z,99.90
2023-02-14T08:55:13.430Z,99.90
2023-02-14T08:57:40.520Z,99.90
2023-02-14T09:00:08.527Z,99.90
2023-02-14T09:02:35.641Z,99.90
2023-02-14T09:05:02.480Z,99.90
2023-02-14T09:07:29.368Z,99.90
2023-02-14T09:09:56.184Z,99.90
2023-02-14T09:12:23.031Z,99.90
2023-02-14T09:14:49.832Z,99.90
2023-02-14T09:17:16.836Z,99.90
2023-02-14T09:19:43.993Z,99.80
2023-02-14T09:22:11.859Z,99.70
2023-02-14T09:24:39.959Z,99.60
2023-02-14T09:27:07.282Z,99.90
2023-02-14T09:29:34.372Z,99.50
2023-02-14T09:32:01.972Z,99.30
2023-02-14T09:34:29.513Z,99.50
2023-02-14T09:37:15.050Z,99.50
2023-02-14T09:39:41.853Z,99.40
2023-02-14T09:42:15.563Z,99.50
2023-02-14T09:44:59.440Z,99.40
2023-02-14T09:48:06.522Z,99.30
2023-02-14T09:50:40.350Z,98.90
2023-02-14T09:53:22.762Z,99.30
2023-02-14T09:55:59.373Z,99.00
2023-02-14T09:58:40.564Z,98.60
2023-02-14T10:01:26.407Z,98.60
2023-02-14T10:04:12.338Z,98.50
2023-02-14T10:06:49.972Z,98.20
2023-02-14T10:09:34.535Z,98.10
2023-02-14T10:12:02.253Z,97.70
2023-02-14T10:14:40.367Z,97.50
2023-02-14T10:17:22.243Z,97.10
2023-02-14T10:20:02.910Z,96.90
2023-02-14T10:22:44.713Z,96.60
2023-02-14T10:25:24.465Z,96.00
2023-02-14T10:27:55.430Z,95.90
2023-02-14T10:30:23.949Z,95.70
2023-02-14T10:33:00.890Z,95.70
2023-02-14T10:35:49.910Z,95.60
2023-02-14T10:38:49.387Z,95.00
2023-02-14T10:41:42.119Z,94.90
2023-02-14T10:44:13.501Z,94.80
2023-02-14T10:46:48.467Z,94.50
2023-02-14T10:49:36.645Z,94.40
2023-02-14T10:52:22.374Z,94.30
2023-02-14T10:54:59.519Z,93.90
2023-02-14T10:57:37.180Z,94.10
2023-02-14T11:00:17.082Z,93.50
2023-02-14T11:02:46.334Z,92.70
2023-02-14T11:05:46.569Z,93.20
2023-02-14T11:08:24.023Z,93.30
2023-02-14T11:10:51.345Z,92.80
2023-02-14T11:13:47.647Z,92.90
2023-02-14T11:16:35.875Z,92.80
2023-02-14T11:19:36.852Z,93.00
2023-02-14T11:22:04.629Z,92.60
2023-02-14T11:24:33.370Z,92.50
2023-02-14T11:27:14.259Z,92.50
2023-02-14T11:29:40.971Z,92.40
2023-02-14T11:32:10.562Z,92.00
2023-02-14T11:34:45.586Z,91.60
2023-02-14T11:37:29.778Z,91.90
2023-02-14T11:39:59.834Z,91.40
2023-02-14T11:42:37.148Z,91.30
2023-02-14T11:45:05.766Z,91.30
2023-02-14T11:47:37.278Z,91.40
2023-02-14T11:50:20.148Z,91.30
2023-02-14T11:52:55.671Z,91.40
2023-02-14T11:55:29.766Z,91.40
2023-02-14T11:57:57.614Z,91.40
2023-02-14T12:00:26.880Z,91.40
2023-02-14T12:02:55.487Z,91.20
2023-02-14T12:05:33.650Z,91.10
2023-02-14T12:08:03.280Z,90.90
2023-02-14T12:10:35.418Z,90.90
2023-02-14T12:13:04.349Z,90.70
2023-02-14T12:15:42.425Z,90.20
2023-02-14T12:18:46.259Z,90.40
2023-02-14T12:21:43.898Z,90.40
2023-02-14T12:24:33.564Z,90.40
2023-02-14T12:27:17.955Z,90.30
2023-02-14T12:29:51.233Z,90.10
2023-02-14T12:32:24.907Z,89.70
2023-02-14T12:34:55.824Z,89.20
2023-02-14T12:37:45.469Z,89.20
2023-02-14T12:40:30.221Z,89.00
2023-02-14T12:43:23.490Z,88.40
2023-02-14T12:45:59.909Z,87.90
2023-02-14T12:48:56.444Z,87.20
2023-02-14T12:51:35.191Z,87.00
2023-02-14T12:54:29.064Z,86.80
2023-02-14T12:57:27.414Z,86.40
2023-02-14T13:00:09.527Z,86.50
2023-02-14T13:03:13.484Z,86.20
2023-02-14T13:05:54.887Z,86.40
2023-02-14T13:09:15.687Z,86.00
2023-02-14T13:11:53.884Z,86.50
2023-02-14T13:14:46.712Z,85.30
2023-02-14T13:17:35.806Z,85.10
2023-02-14T13:20:08.558Z,84.80
2023-02-14T13:22:36.139Z,84.40
2023-02-14T13:25:19.897Z,83.90
2023-02-14T13:27:46.776Z,84.20
2023-02-14T13:30:26.711Z,84.10
2023-02-14T13:32:56.676Z,83.70
2023-02-14T13:35:25.089Z,83.70
2023-02-14T13:38:04.708Z,83.60
2023-02-14T13:40:34.439Z,83.40
2023-02-14T13:43:02.235Z,83.30
2023-02-14T13:45:32.158Z,82.80
2023-02-14T13:48:05.659Z,83.00
2023-02-14T13:50:39.898Z,83.00
2023-02-14T13:53:12.799Z,82.90
2023-02-14T13:55:45.572Z,82.90
2023-02-14T13:58:19.269Z,82.80
2023-02-14T14:00:51.176Z,82.80
2023-02-14T14:03:30.296Z,82.70
2023-02-14T14:06:00.519Z,82.50
2023-02-14T14:08:28.787Z,82.50
2023-02-14T14:11:06.037Z,82.40
2023-02-14T14:13:42.035Z,82.40
2023-02-14T14:16:24.161Z,82.20
2023-02-14T14:18:54.743Z,82.30
2023-02-14T14:21:29.664Z,82.30
2023-02-14T14:24:15.434Z,82.40
2023-02-14T14:26:43.321Z,82.40
2023-02-14T14:29:19.136Z,82.40
2023-02-14T14:31:47.369Z,82.40
2023-02-14T14:34:19.563Z,82.80
2023-02-14T14:36:46.722Z,83.20
2023-02-14T14:39:26.788Z,83.60
2023-02-14T14:41:53.792Z,84.00
2023-02-14T14:44:20.780Z,84.50
2023-02-14T14:46:48.725Z,84.80
2023-02-14T14:49:16.989Z,85.30
2023-02-14T14:51:44.024Z,86.30
2023-02-14T14:54:22.789Z,85.90
2023-02-14T14:57:01.400Z,86.40
2023-02-14T14:59:35.558Z,86.60
2023-02-14T15:02:03.994Z,87.20
2023-02-14T15:04:30.791Z,87.60
2023-02-14T15:07:16.576Z,87.90
2023-02-14T15:09:44.464Z,88.20
2023-02-14T15:12:43.009Z,88.60
2023-02-14T15:15:16.632Z,89.10
2023-02-14T15:17:45.507Z,89.40
2023-02-14T15:20:21.909Z,89.90
2023-02-14T15:22:51.833Z,90.10
2023-02-14T15:25:26.829Z,90.20
2023-02-14T15:27:53.706Z,90.50
2023-02-14T15:30:20.662Z,90.60
2023-02-14T15:32:49.448Z,90.70
2023-02-14T15:35:19.335Z,90.70
2023-02-14T15:37:47.234Z,90.90
2023-02-14T15:40:25.900Z,91.00
2023-02-14T15:42:56.596Z,91.10
2023-02-14T15:45:27.667Z,91.10
2023-02-14T15:47:57.130Z,91.20
2023-02-14T15:50:30.100Z,91.30
2023-02-14T15:53:05.429Z,91.40
2023-02-14T15:55:33.409Z,91.60
2023-02-14T15:58:05.456Z,91.60
2023-02-14T16:00:33.749Z,91.70
2023-02-14T16:03:05.810Z,91.90
2023-02-14T16:05:32.718Z,92.00
2023-02-14T16:07:59.405Z,92.10
2023-02-14T16:10:34.130Z,92.20
2023-02-14T16:13:02.374Z,92.40
2023-02-14T16:15:32.581Z,92.50
2023-02-14T16:18:00.935Z,92.60
2023-02-14T16:20:40.540Z,92.70
2023-02-14T16:23:22.233Z,92.90
2023-02-14T16:25:50.173Z,93.00
2023-02-14T16:28:17.845Z,93.00
2023-02-14T16:30:46.620Z,93.20
2023-02-14T16:33:21.444Z,93.30
2023-02-14T16:35:49.810Z,93.50
2023-02-14T16:38:18.911Z,93.60
2023-02-14T16:40:52.331Z,93.70
2023-02-14T16:43:20.779Z,93.80
2023-02-14T16:45:48.205Z,93.80
2023-02-14T16:48:17.794Z,94.00
2023-02-14T16:50:45.669Z,94.50
2023-02-14T16:53:24.654Z,94.20
2023-02-14T16:55:57.773Z,94.40
2023-02-14T16:58:32.016Z,94.50
2023-02-14T17:00:59.173Z,94.40
2023-02-14T17:03:26.115Z,94.40
2023-02-14T17:05:53.258Z,94.50
2023-02-14T17:08:20.092Z,94.60
2023-02-14T17:10:48.635Z,94.60
2023-02-14T17:13:19.463Z,94.70
2023-02-14T17:15:46.453Z,95.00
2023-02-14T17:18:17.635Z,95.00
2023-02-14T17:20:44.462Z,95.10
2023-02-14T17:23:11.190Z,95.30
2023-02-14T17:25:38.710Z,95.40
2023-02-14T17:28:11.431Z,96.00
2023-02-14T17:30:38.236Z,96.10
2023-02-14T17:33:05.145Z,96.10
2023-02-14T17:35:37.202Z,96.20
2023-02-14T17:38:04.527Z,96.30
2023-02-14T17:40:31.572Z,96.30
2023-02-14T17:42:58.336Z,96.30
2023-02-14T17:45:25.280Z,96.40
2023-02-14T17:47:52.047Z,96.40
2023-02-14T17:50:18.992Z,96.40
2023-02-14T17:52:46.110Z,96.40
2023-02-14T17:55:13.851Z,96.50
2023-02-14T17:57:41.547Z,96.50
2023-02-14T18:00:11.651Z,96.60
2023-02-14T18:02:38.724Z,96.70
2023-02-14T18:05:07.321Z,96.70
2023-02-14T18:07:34.228Z,96.70
2023-02-14T18:10:01.073Z,96.60
2023-02-14T18:12:27.931Z,96.60
2023-02-14T18:14:56.093Z,96.70
2023-02-14T18:17:23.052Z,96.70
2023-02-14T18:19:49.963Z,96.70
2023-02-14T18:22:16.739Z,96.60
2023-02-14T18:24:43.472Z,96.60
2023-02-14T18:27:10.403Z,96.70
2023-02-14T18:29:39.356Z,96.70
2023-02-14T18:32:06.330Z,96.70
2023-02-14T18:34:37.318Z,96.60
2023-02-14T18:37:04.594Z,96.60
2023-02-14T18:39:32.793Z,96.60
2023-02-14T18:42:01.007Z,96.80
2023-02-14T18:44:29.166Z,96.90
2023-02-14T18:46:56.317Z,97.30
2023-02-14T18:49:23.418Z,97.10
2023-02-14T18:51:50.345Z,97.20
2023-02-14T18:54:17.177Z,97.10
2023-02-14T18:56:43.979Z,97.00
2023-02-14T18:59:13.351Z,97.00
2023-02-14T19:01:46.002Z,97.00
2023-02-14T19:04:13.424Z,97.00
2023-02-14T19:06:42.030Z,97.20
2023-02-14T19:09:12.080Z,97.10
2023-02-14T19:11:39.599Z,97.10
2023-02-14T19:14:10.115Z,97.10
2023-02-14T19:16:42.115Z,97.10
2023-02-14T19:19:09.166Z,97.10
2023-02-14T19:21:36.766Z,97.10
2023-02-14T19:24:07.719Z,97.00
2023-02-14T19:26:40.035Z,96.90
2023-02-14T19:29:13.022Z,96.90
2023-02-14T19:31:43.415Z,97.20
2023-02-14T19:34:16.416Z,97.00
2023-02-14T19:36:43.524Z,96.80
2023-02-14T19:39:11.525Z,96.90
2023-02-14T19:41:39.640Z,96.90
2023-02-14T19:44:14.011Z,97.00
2023-02-14T19:46:42.531Z,97.30
2023-02-14T19:49:12.887Z,97.20
2023-02-14T19:51:40.455Z,97.10
2023-02-14T19:54:09.735Z,97.10
2023-02-14T19:56:39.833Z,97.10
2023-02-14T19:59:10.294Z,97.10
2023-02-14T20:01:42.950Z,97.10
2023-02-14T20:04:13.865Z,97.10
2023-02-14T20:06:42.413Z,97.20
2023-02-14T20:09:10.085Z,97.20
2023-02-14T20:11:51.885Z,97.20
2023-02-14T20:14:22.242Z,97.10
2023-02-14T20:16:49.749Z,97.20
2023-02-14T20:19:20.444Z,97.20
2023-02-14T20:21:50.197Z,97.20
2023-02-14T20:24:22.949Z,97.10
2023-02-14T20:26:52.642Z,97.20
2023-02-14T20:29:21.793Z,97.10
2023-02-14T20:31:54.537Z,97.20
2023-02-14T20:34:22.418Z,97.40
2023-02-14T20:36:53.375Z,97.40
2023-02-14T20:39:22.038Z,97.20
2023-02-14T20:41:57.373Z,97.30
2023-02-14T20:44:24.678Z,97.20
2023-02-14T20:46:54.011Z,97.10
2023-02-14T20:49:22.832Z,97.40
2023-02-14T20:51:51.454Z,97.00
2023-02-14T20:54:24.375Z,97.00
2023-02-14T20:56:52.053Z,97.10
2023-02-14T20:59:24.451Z,97.00
2023-02-14T21:01:51.691Z,97.00
2023-02-14T21:04:18.884Z,97.00
2023-02-14T21:06:47.713Z,97.00
2023-02-14T21:09:15.175Z,97.30
2023-02-14T21:11:42.364Z,97.70
2023-02-14T21:14:09.389Z,97.50
2023-02-14T21:16:36.227Z,97.70
2023-02-14T21:19:04.272Z,97.80
2023-02-14T21:21:36.497Z,97.80
2023-02-14T21:24:12.060Z,97.80
2023-02-14T21:26:39.420Z,97.80
2023-02-14T21:29:07.699Z,97.50
2023-02-14T21:31:35.583Z,97.60
2023-02-14T21:34:03.421Z,97.60
2023-02-14T21:36:32.452Z,97.80
2023-02-14T21:39:00.208Z,97.80
2023-02-14T21:41:30.775Z,97.70
2023-02-14T21:43:59.121Z,97.70
2023-02-14T21:46:31.068Z,97.70
2023-02-14T21:49:18.781Z,97.60
2023-02-14T21:51:46.680Z,98.00
2023-02-14T21:54:14.037Z,97.50
2023-02-14T21:56:41.578Z,97.50
2023-02-14T21:59:09.680Z,97.40
2023-02-14T22:01:39.262Z,97.20
2023-02-14T22:04:09.092Z,97.50
2023-02-14T22:06:37.599Z,97.70
2023-02-14T22:09:05.265Z,97.70
2023-02-14T22:11:32.843Z,97.60
2023-02-14T22:14:00.463Z,97.60
2023-02-14T22:16:27.456Z,97.60
2023-02-14T22:18:54.498Z,97.60
2023-02-14T22:21:23.618Z,97.50
2023-02-14T22:23:50.559Z,97.30
2023-02-14T22:26:25.760Z,97.30
2023-02-14T22:28:59.025Z,97.70
2023-02-14T22:31:27.851Z,97.30
2023-02-14T22:33:54.919Z,97.40
2023-02-14T22:36:22.235Z,97.50
2023-02-14T22:38:49.169Z,97.50
2023-02-14T22:41:18.695Z,97.60
2023-02-14T22:43:45.661Z,97.50
2023-02-14T22:46:30.695Z,97.50
2023-02-14T22:48:57.942Z,97.60
2023-02-14T22:51:26.586Z,97.60
2023-02-14T22:54:08.872Z,97.70
2023-02-14T22:56:41.195Z,97.90
2023-02-14T22:59:16.814Z,97.80
2023-02-14T23:01:43.813Z,97.90
2023-02-14T23:04:10.740Z,97.90
2023-02-14T23:06:37.916Z,98.00
2023-02-14T23:09:07.076Z,98.00
2023-02-14T23:11:35.708Z,98.00
2023-02-14T23:14:21.357Z,98.00
2023-02-14T23:17:06.859Z,98.10
2023-02-14T23:19:54.924Z,98.10
2023-02-14T23:22:33.878Z,98.20
2023-02-14T23:25:03.543Z,98.40
2023-02-14T23:27:32.421Z,98.00
2023-02-14T23:29:59.373Z,98.20
2023-02-14T23:32:26.455Z,98.30
2023-02-14T23:34:53.628Z,98.40
2023-02-14T23:37:20.537Z,98.30
2023-02-14T23:39:47.193Z,98.30
2023-02-14T23:42:14.827Z,98.10
2023-02-14T23:44:43.226Z,98.20
2023-02-14T23:47:10.432Z,98.10
2023-02-14T23:49:39.359Z,98.30
2023-02-14T23:52:09.681Z,98.00
2023-02-14T23:54:37.201Z,98.10
2023-02-14T23:57:04.758Z,98.10
2023-02-14T23:59:31.739Z,98.10
